Time;durP1;ratioP1;P1;durP2;ratioP2;P2;SDS_P1;SDS_P2;PMS_P1;PMS_P2;Temp;Humidity;BMP_temperature;BMP_pressure;BME280_temperature;BME280_humidity;BME280_pressure;Samples;Min_cycle;Max_cycle;Signal;HPM_P1;HPM_P2
2022/09/30 00:00:08;;;;;;;;;;;8.80;99.90;;;;;;8431084;28;20394;-78
2022/09/30 00:04:18;;;;;;;;;;;8.80;99.90;;;;;;8402011;28;19919;-79
2022/09/30 00:08:19;;;;;;;;;;;8.70;99.90;;;;;;8434104;28;19920;-78
2022/09/30 00:12:21;;;;;;;;;;;8.70;99.90;;;;;;8438112;27;20352;-78
2022/09/30 00:16:24;;;;;;;;;;;8.70;99.90;;;;;;8425544;28;19924;-79
2022/09/30 00:20:26;;;;;;;;;;;8.70;99.90;;;;;;8431133;28;19920;-78
2022/09/30 00:24:27;;;;;;;;;;;8.60;99.90;;;;;;8409119;28;19930;-78
2022/09/30 00:28:29;;;;;;;;;;;8.60;99.90;;;;;;8422817;28;20382;-79
2022/09/30 00:32:31;;;;;;;;;;;8.50;99.90;;;;;;8436220;28;19924;-78
2022/09/30 00:36:33;;;;;;;;;;;8.50;99.90;;;;;;8427427;28;19927;-78
2022/09/30 00:40:37;;;;;;;;;;;8.50;99.90;;;;;;8421721;28;20374;-78
2022/09/30 00:44:57;;;;;;;;;;;8.50;99.90;;;;;;8426933;28;19931;-78
2022/09/30 00:49:02;;;;;;;;;;;8.40;99.90;;;;;;8428622;28;19938;-79
2022/09/30 00:53:03;;;;;;;;;;;8.30;99.90;;;;;;8430339;28;19920;-79
2022/09/30 00:57:06;;;;;;;;;;;8.30;99.90;;;;;;8435920;28;19926;-79
2022/09/30 01:01:08;;;;;;;;;;;8.30;99.90;;;;;;8425512;28;19927;-79
2022/09/30 01:05:12;;;;;;;;;;;8.30;99.90;;;;;;8412710;28;19927;-79
2022/09/30 01:09:13;;;;;;;;;;;8.20;99.90;;;;;;8431024;28;19924;-78
2022/09/30 01:13:16;;;;;;;;;;;8.20;99.90;;;;;;8434359;28;19926;-78
2022/09/30 01:17:37;;;;;;;;;;;8.20;99.90;;;;;;8401717;28;20010;-79
2022/09/30 01:21:51;;;;;;;;;;;8.10;99.90;;;;;;8435057;28;20389;-78
2022/09/30 01:26:08;;;;;;;;;;;8.00;99.90;;;;;;8423136;28;19930;-78
2022/09/30 01:30:15;;;;;;;;;;;8.00;99.90;;;;;;8431185;28;19920;-78
2022/09/30 01:34:31;;;;;;;;;;;7.90;99.90;;;;;;8421845;28;19926;-79
2022/09/30 01:38:33;;;;;;;;;;;7.90;99.90;;;;;;8422818;28;20405;-78
2022/09/30 01:42:38;;;;;;;;;;;7.90;99.90;;;;;;8428570;27;20010;-78
2022/09/30 01:46:43;;;;;;;;;;;7.80;99.90;;;;;;8436677;28;19927;-79
2022/09/30 01:50:45;;;;;;;;;;;7.80;99.90;;;;;;8399752;28;19924;-79
2022/09/30 01:55:05;;;;;;;;;;;7.80;99.90;;;;;;8431186;28;19919;-79
2022/09/30 01:59:10;;;;;;;;;;;7.80;99.90;;;;;;8409069;28;19930;-79
2022/09/30 02:03:23;;;;;;;;;;;7.80;99.90;;;;;;8411185;28;19919;-78
2022/09/30 02:07:29;;;;;;;;;;;7.70;99.90;;;;;;8433799;28;20018;-78
2022/09/30 02:11:35;;;;;;;;;;;7.70;99.90;;;;;;8410561;28;19920;-79
2022/09/30 02:15:39;;;;;;;;;;;7.70;99.90;;;;;;8420462;28;19931;-79
2022/09/30 02:19:45;;;;;;;;;;;7.70;99.90;;;;;;8412368;28;19924;-78
2022/09/30 02:23:48;;;;;;;;;;;7.60;99.90;;;;;;8423461;28;20019;-78
2022/09/30 02:27:53;;;;;;;;;;;7.60;99.90;;;;;;8412229;28;19946;-78
2022/09/30 02:31:58;;;;;;;;;;;7.60;99.90;;;;;;8425412;28;19941;-79
2022/09/30 02:36:05;;;;;;;;;;;7.50;99.90;;;;;;8409294;28;19919;-77
2022/09/30 02:40:10;;;;;;;;;;;7.50;99.90;;;;;;8396131;28;19920;-78
2022/09/30 02:44:13;;;;;;;;;;;7.50;99.90;;;;;;8422771;28;20011;-78
2022/09/30 02:48:26;;;;;;;;;;;7.40;99.90;;;;;;8416387;28;19931;-78
2022/09/30 02:52:36;;;;;;;;;;;7.40;99.90;;;;;;8426959;28;20030;-78
2022/09/30 02:56:41;;;;;;;;;;;7.30;99.90;;;;;;8429816;28;20367;-78
2022/09/30 03:00:43;;;;;;;;;;;7.30;99.90;;;;;;8424504;28;19930;-78
2022/09/30 03:04:45;;;;;;;;;;;7.30;99.90;;;;;;8432740;28;20006;-78
2022/09/30 03:08:47;;;;;;;;;;;7.30;99.90;;;;;;8405861;28;20038;-78
2022/09/30 03:13:09;;;;;;;;;;;7.20;99.90;;;;;;8421866;28;20003;-78
2022/09/30 03:17:19;;;;;;;;;;;7.20;99.90;;;;;;8416714;28;19920;-79
2022/09/30 03:21:38;;;;;;;;;;;7.20;99.90;;;;;;8385907;28;20387;-78
2022/09/30 03:26:06;;;;;;;;;;;7.20;99.90;;;;;;8435212;28;20019;-78
2022/09/30 03:30:12;;;;;;;;;;;7.10;99.90;;;;;;8409989;28;20003;-79
2022/09/30 03:34:36;;;;;;;;;;;7.10;99.90;;;;;;8432664;28;19923;-78
2022/09/30 03:38:57;;;;;;;;;;;7.00;99.90;;;;;;8402433;28;20362;-78
2022/09/30 03:43:13;;;;;;;;;;;7.00;99.90;;;;;;8431617;28;19930;-77
2022/09/30 03:47:16;;;;;;;;;;;7.00;99.90;;;;;;8436415;28;19926;-78
2022/09/30 03:51:18;;;;;;;;;;;7.00;99.90;;;;;;8421133;28;20379;-78
2022/09/30 03:55:21;;;;;;;;;;;7.00;99.90;;;;;;8430759;28;19920;-78
2022/09/30 03:59:27;;;;;;;;;;;7.00;99.90;;;;;;8411517;28;19924;-78
2022/09/30 04:03:28;;;;;;;;;;;7.00;99.90;;;;;;8404671;28;20361;-78
2022/09/30 04:07:30;;;;;;;;;;;6.90;99.90;;;;;;8427649;28;19926;-78
2022/09/30 04:11:32;;;;;;;;;;;6.90;99.90;;;;;;8432498;28;20416;-78
2022/09/30 04:15:35;;;;;;;;;;;6.90;99.90;;;;;;8437661;28;19926;-78
2022/09/30 04:19:38;;;;;;;;;;;6.80;99.90;;;;;;8413539;28;19920;-78
2022/09/30 04:23:41;;;;;;;;;;;6.80;99.90;;;;;;8432960;28;19986;-78
2022/09/30 04:27:43;;;;;;;;;;;6.80;99.90;;;;;;8433285;28;20035;-78
2022/09/30 04:31:44;;;;;;;;;;;6.80;99.90;;;;;;8429730;27;20007;-78
2022/09/30 04:35:46;;;;;;;;;;;6.80;99.90;;;;;;8431188;27;20640;-78
2022/09/30 04:39:48;;;;;;;;;;;6.70;99.90;;;;;;8427756;28;19967;-78
2022/09/30 04:43:49;;;;;;;;;;;6.70;99.90;;;;;;8422186;28;19934;-79
2022/09/30 04:47:51;;;;;;;;;;;6.70;99.90;;;;;;8430023;27;19926;-79
2022/09/30 04:51:53;;;;;;;;;;;6.70;99.90;;;;;;8423863;28;20286;-78
2022/09/30 04:55:58;;;;;;;;;;;6.60;99.90;;;;;;8414618;28;20334;-78
2022/09/30 05:00:00;;;;;;;;;;;6.60;99.90;;;;;;8424970;28;19926;-78
2022/09/30 05:04:02;;;;;;;;;;;6.50;99.90;;;;;;8413937;28;19924;-78
2022/09/30 05:08:04;;;;;;;;;;;6.50;99.90;;;;;;8411642;28;19920;-78
2022/09/30 05:12:07;;;;;;;;;;;6.50;99.90;;;;;;8439594;28;19920;-78
2022/09/30 05:16:09;;;;;;;;;;;6.50;99.90;;;;;;8387145;28;20347;-79
2022/09/30 05:20:10;;;;;;;;;;;6.40;99.90;;;;;;8418613;28;19995;-78
2022/09/30 05:24:12;;;;;;;;;;;6.40;99.90;;;;;;8438247;28;20401;-78
2022/09/30 05:28:14;;;;;;;;;;;6.40;99.90;;;;;;8425963;28;19928;-78
2022/09/30 05:32:17;;;;;;;;;;;6.40;99.90;;;;;;8435118;28;21831;-78
2022/09/30 05:36:18;;;;;;;;;;;6.40;99.90;;;;;;8392742;28;19928;-78
2022/09/30 05:40:20;;;;;;;;;;;6.40;99.90;;;;;;8426042;28;19924;-78
2022/09/30 05:44:21;;;;;;;;;;;6.40;99.90;;;;;;8429518;28;19920;-78
2022/09/30 05:48:24;;;;;;;;;;;6.40;99.90;;;;;;8418757;27;19934;-78
2022/09/30 05:52:27;;;;;;;;;;;6.30;99.90;;;;;;8428035;28;19932;-77
2022/09/30 05:56:28;;;;;;;;;;;6.30;99.90;;;;;;8427406;28;19923;-78
2022/09/30 06:00:30;;;;;;;;;;;6.30;99.90;;;;;;8419425;28;20465;-78
2022/09/30 06:04:31;;;;;;;;;;;6.30;99.90;;;;;;8417095;28;20068;-78
2022/09/30 06:08:33;;;;;;;;;;;6.30;99.90;;;;;;8419743;28;19920;-78
2022/09/30 06:23:12;;;;;;;;;;;6.30;99.90;;;;;;8428929;28;19945;-78
2022/09/30 06:27:14;;;;;;;;;;;6.30;99.90;;;;;;8399896;28;22096;-79
2022/09/30 06:31:16;;;;;;;;;;;6.40;99.90;;;;;;8420299;28;19919;-78
2022/09/30 06:35:19;;;;;;;;;;;6.40;99.90;;;;;;8411195;28;19920;-78
2022/09/30 06:39:20;;;;;;;;;;;6.50;99.90;;;;;;8405541;28;20006;-78
2022/09/30 06:43:22;;;;;;;;;;;6.50;99.90;;;;;;8429110;28;19927;-78
2022/09/30 06:47:24;;;;;;;;;;;6.60;99.90;;;;;;8413235;28;19959;-78
2022/09/30 06:51:28;;;;;;;;;;;6.70;99.90;;;;;;8413070;28;19963;-78
2022/09/30 06:55:30;;;;;;;;;;;6.80;99.90;;;;;;8428580;28;19923;-78
2022/09/30 06:59:31;;;;;;;;;;;6.90;99.90;;;;;;8416405;28;19934;-78
2022/09/30 07:03:34;;;;;;;;;;;7.00;99.90;;;;;;8423830;28;20385;-78
2022/09/30 07:07:36;;;;;;;;;;;7.10;99.90;;;;;;8391696;28;20496;-78
2022/09/30 07:11:38;;;;;;;;;;;7.30;99.90;;;;;;8424186;28;19928;-78
2022/09/30 07:15:43;;;;;;;;;;;7.30;99.90;;;;;;8434847;28;19930;-78
2022/09/30 07:19:44;;;;;;;;;;;7.40;99.90;;;;;;8418293;28;19932;-78
2022/09/30 07:23:46;;;;;;;;;;;7.60;99.90;;;;;;8423688;28;20371;-78
2022/09/30 07:27:48;;;;;;;;;;;7.70;99.90;;;;;;8415741;28;19966;-79
2022/09/30 07:31:50;;;;;;;;;;;7.80;99.90;;;;;;8412774;28;19926;-78
2022/09/30 07:35:52;;;;;;;;;;;8.00;99.90;;;;;;8430790;27;19920;-79
2022/09/30 07:39:54;;;;;;;;;;;8.10;99.90;;;;;;8440253;28;19930;-79
2022/09/30 07:43:57;;;;;;;;;;;8.20;99.90;;;;;;8415161;28;20033;-78
2022/09/30 07:48:00;;;;;;;;;;;8.30;99.90;;;;;;8424966;28;19942;-79
2022/09/30 07:52:03;;;;;;;;;;;8.50;99.90;;;;;;8420284;28;19924;-78
2022/09/30 07:56:05;;;;;;;;;;;8.60;99.90;;;;;;8437332;28;20445;-79
2022/09/30 08:00:07;;;;;;;;;;;8.70;99.90;;;;;;8445020;28;19920;-79
2022/09/30 08:04:29;;;;;;;;;;;8.90;99.90;;;;;;8437584;28;19919;-79
2022/09/30 08:08:30;;;;;;;;;;;9.00;99.90;;;;;;8435368;28;19930;-79
2022/09/30 08:12:32;;;;;;;;;;;9.20;99.90;;;;;;8431685;28;19936;-79
2022/09/30 08:16:33;;;;;;;;;;;9.40;99.90;;;;;;8422953;28;19924;-79
2022/09/30 08:20:35;;;;;;;;;;;9.60;99.90;;;;;;8419498;28;20421;-79
2022/09/30 08:24:37;;;;;;;;;;;9.80;99.90;;;;;;8434128;28;19920;-79
2022/09/30 08:28:38;;;;;;;;;;;10.00;99.90;;;;;;8435542;28;19982;-79
2022/09/30 08:32:40;;;;;;;;;;;10.20;99.90;;;;;;8431898;28;19930;-78
2022/09/30 08:36:42;;;;;;;;;;;10.30;99.90;;;;;;8420665;28;19924;-78
2022/09/30 08:40:54;;;;;;;;;;;10.50;99.90;;;;;;8413992;28;20044;-78
2022/09/30 08:45:02;;;;;;;;;;;10.60;99.90;;;;;;8431997;28;19928;-79
2022/09/30 08:49:04;;;;;;;;;;;10.80;99.90;;;;;;8436475;28;19924;-78
2022/09/30 08:53:11;;;;;;;;;;;11.00;99.90;;;;;;8437690;28;19930;-78
2022/09/30 08:57:13;;;;;;;;;;;11.20;99.90;;;;;;8435464;28;20391;-79
2022/09/30 09:01:23;;;;;;;;;;;11.30;99.90;;;;;;8433671;28;20035;-78
2022/09/30 09:05:32;;;;;;;;;;;11.50;99.90;;;;;;8427283;28;19927;-78
2022/09/30 09:09:39;;;;;;;;;;;11.60;99.90;;;;;;8429135;28;19934;-78
2022/09/30 09:13:59;;;;;;;;;;;11.80;99.90;;;;;;8441947;28;19923;-78
2022/09/30 09:18:14;;;;;;;;;;;12.00;99.90;;;;;;8435692;28;19923;-78
2022/09/30 09:22:25;;;;;;;;;;;12.20;99.90;;;;;;8418046;28;19926;-78
2022/09/30 09:26:33;;;;;;;;;;;12.40;99.90;;;;;;8434082;28;19927;-78
2022/09/30 09:30:42;;;;;;;;;;;12.60;99.90;;;;;;8425298;28;20339;-78
2022/09/30 09:34:48;;;;;;;;;;;12.80;99.90;;;;;;8413403;28;19925;-78
2022/09/30 09:38:56;;;;;;;;;;;13.10;99.90;;;;;;8408641;28;19930;-79
2022/09/30 09:43:02;;;;;;;;;;;13.20;99.90;;;;;;8434752;28;19923;-77
2022/09/30 09:47:13;;;;;;;;;;;13.30;99.90;;;;;;8435054;28;19928;-78
2022/09/30 09:51:17;;;;;;;;;;;13.40;99.90;;;;;;8431794;28;20285;-77
2022/09/30 09:55:20;;;;;;;;;;;13.40;99.90;;;;;;8424938;28;19920;-78
2022/09/30 09:59:22;;;;;;;;;;;13.50;99.90;;;;;;8422551;28;19928;-78
2022/09/30 10:03:26;;;;;;;;;;;13.50;99.90;;;;;;8409518;28;19927;-78
2022/09/30 10:07:29;;;;;;;;;;;13.60;99.90;;;;;;8421420;28;19920;-77
2022/09/30 10:11:31;;;;;;;;;;;13.70;99.90;;;;;;8411167;28;19925;-78
2022/09/30 10:15:36;;;;;;;;;;;13.80;99.90;;;;;;8412036;28;19928;-78
2022/09/30 10:19:39;;;;;;;;;;;14.00;99.90;;;;;;8405806;27;19921;-76
2022/09/30 10:23:41;;;;;;;;;;;14.10;99.90;;;;;;8396297;28;20058;-76
2022/09/30 10:27:52;;;;;;;;;;;14.20;99.90;;;;;;8403345;28;19928;-78
2022/09/30 10:31:54;;;;;;;;;;;14.50;99.90;;;;;;8392603;28;19928;-77
2022/09/30 10:36:02;;;;;;;;;;;14.70;99.90;;;;;;8395169;28;19931;-78
2022/09/30 10:40:08;;;;;;;;;;;15.00;99.90;;;;;;8400345;28;19954;-77
2022/09/30 10:44:15;;;;;;;;;;;15.20;99.90;;;;;;8407802;28;19924;-77
2022/09/30 10:48:18;;;;;;;;;;;15.30;99.90;;;;;;8404622;28;19981;-77
2022/09/30 10:52:24;;;;;;;;;;;15.50;99.90;;;;;;8403892;28;19920;-78
2022/09/30 10:56:38;;;;;;;;;;;15.70;99.90;;;;;;8410324;28;20363;-78
2022/09/30 11:00:40;;;;;;;;;;;15.50;99.90;;;;;;8404764;28;19930;-78
2022/09/30 11:04:47;;;;;;;;;;;15.40;99.90;;;;;;8404016;28;20024;-78
2022/09/30 11:08:52;;;;;;;;;;;15.30;99.90;;;;;;8388712;28;19923;-78
2022/09/30 11:13:00;;;;;;;;;;;15.40;99.90;;;;;;8404643;28;20374;-79
2022/09/30 11:17:09;;;;;;;;;;;15.60;99.90;;;;;;8399120;28;19934;-78
2022/09/30 11:21:13;;;;;;;;;;;15.90;99.90;;;;;;8393102;28;19920;-78
2022/09/30 11:25:18;;;;;;;;;;;15.90;99.90;;;;;;8399073;28;19931;-78
2022/09/30 11:29:26;;;;;;;;;;;16.00;99.90;;;;;;8395948;28;19931;-78
2022/09/30 11:33:27;;;;;;;;;;;15.90;99.90;;;;;;8400848;28;20402;-78
2022/09/30 11:37:32;;;;;;;;;;;15.90;99.90;;;;;;8392234;28;19923;-77
2022/09/30 11:41:37;;;;;;;;;;;16.20;99.90;;;;;;8398875;28;19928;-78
2022/09/30 11:45:54;;;;;;;;;;;16.30;99.90;;;;;;8388061;28;19923;-79
2022/09/30 11:49:56;;;;;;;;;;;16.20;99.90;;;;;;8394637;28;19920;-78
2022/09/30 11:54:18;;;;;;;;;;;16.10;99.90;;;;;;8386897;28;20268;-77
2022/09/30 11:58:21;;;;;;;;;;;16.20;99.90;;;;;;8397630;28;20245;-77
2022/09/30 12:02:44;;;;;;;;;;;16.40;99.90;;;;;;8397663;28;19928;-76
2022/09/30 12:06:49;;;;;;;;;;;16.50;99.90;;;;;;8402141;28;19924;-77
2022/09/30 12:11:11;;;;;;;;;;;16.50;99.90;;;;;;8395654;28;19924;-78
2022/09/30 12:15:14;;;;;;;;;;;16.40;99.90;;;;;;8402402;28;19942;-79
2022/09/30 12:19:19;;;;;;;;;;;16.40;99.90;;;;;;8398408;28;19926;-77
2022/09/30 12:23:29;;;;;;;;;;;16.50;99.90;;;;;;8383945;28;19970;-77
2022/09/30 12:27:39;;;;;;;;;;;16.70;99.90;;;;;;8401028;28;19924;-77
2022/09/30 12:31:43;;;;;;;;;;;16.90;99.90;;;;;;8410121;28;19920;-79
2022/09/30 12:35:57;;;;;;;;;;;16.90;99.90;;;;;;8400249;28;19932;-78
2022/09/30 12:40:06;;;;;;;;;;;16.80;99.90;;;;;;8400691;28;19924;-77
2022/09/30 12:44:26;;;;;;;;;;;16.70;99.90;;;;;;8390028;28;19923;-77
2022/09/30 12:48:33;;;;;;;;;;;16.70;99.90;;;;;;8373811;28;20305;-78
2022/09/30 12:52:35;;;;;;;;;;;16.50;99.90;;;;;;8393742;28;20365;-78
2022/09/30 12:56:40;;;;;;;;;;;16.40;99.90;;;;;;8400083;28;20031;-78
2022/09/30 13:00:57;;;;;;;;;;;16.40;99.90;;;;;;8395323;28;20015;-77
2022/09/30 13:05:31;;;;;;;;;;;16.50;99.90;;;;;;8398910;28;19985;-78
2022/09/30 13:09:34;;;;;;;;;;;16.60;99.90;;;;;;8369923;28;20067;-78
2022/09/30 13:13:56;;;;;;;;;;;16.60;99.90;;;;;;8399251;28;19926;-78
2022/09/30 13:18:01;;;;;;;;;;;16.60;99.90;;;;;;8378590;28;19920;-78
2022/09/30 13:22:28;;;;;;;;;;;16.60;99.90;;;;;;8399988;28;20375;-77
2022/09/30 13:26:39;;;;;;;;;;;16.60;99.90;;;;;;8393834;28;19920;-78
2022/09/30 13:30:43;;;;;;;;;;;16.60;99.90;;;;;;8398121;28;19938;-78
2022/09/30 13:34:53;;;;;;;;;;;16.70;99.90;;;;;;8398932;28;19938;-78
2022/09/30 13:39:13;;;;;;;;;;;16.80;99.90;;;;;;8388117;28;19919;-78
2022/09/30 13:43:25;;;;;;;;;;;16.90;99.90;;;;;;8391818;28;19924;-78
2022/09/30 13:47:33;;;;;;;;;;;17.10;99.90;;;;;;8410660;28;19950;-77
2022/09/30 13:51:34;;;;;;;;;;;17.20;99.90;;;;;;8401932;28;19920;-79
2022/09/30 13:55:46;;;;;;;;;;;17.30;99.90;;;;;;8403318;28;19925;-78
2022/09/30 14:00:01;;;;;;;;;;;17.40;99.90;;;;;;8406674;28;20241;-79
2022/09/30 14:04:03;;;;;;;;;;;17.50;99.90;;;;;;8400324;28;20679;-78
2022/09/30 14:08:23;;;;;;;;;;;17.60;99.90;;;;;;8397037;28;20375;-78
2022/09/30 14:12:30;;;;;;;;;;;17.70;99.90;;;;;;8393688;28;20291;-77
2022/09/30 14:16:51;;;;;;;;;;;17.70;99.90;;;;;;8394598;28;19928;-78
2022/09/30 14:21:00;;;;;;;;;;;17.80;99.90;;;;;;8404256;28;19928;-78
2022/09/30 14:25:02;;;;;;;;;;;17.80;99.90;;;;;;8393418;28;19923;-79
2022/09/30 14:29:27;;;;;;;;;;;17.70;99.90;;;;;;8402920;27;19963;-79
2022/09/30 14:33:30;;;;;;;;;;;17.70;99.90;;;;;;8404495;28;20023;-78
2022/09/30 14:37:41;;;;;;;;;;;17.60;99.90;;;;;;8400042;28;20355;-79
2022/09/30 14:41:49;;;;;;;;;;;17.50;99.90;;;;;;8381163;28;19925;-79
2022/09/30 14:45:53;;;;;;;;;;;17.40;99.90;;;;;;8400963;28;19928;-79
2022/09/30 14:49:54;;;;;;;;;;;17.30;99.90;;;;;;8405742;28;19966;-77
2022/09/30 14:54:01;;;;;;;;;;;17.20;99.90;;;;;;8394767;28;19945;-78
2022/09/30 14:58:20;;;;;;;;;;;17.20;99.90;;;;;;8393475;28;19924;-78
2022/09/30 15:02:22;;;;;;;;;;;17.10;99.90;;;;;;8412350;28;19928;-78
2022/09/30 15:06:29;;;;;;;;;;;17.10;99.90;;;;;;8392089;28;19935;-79
2022/09/30 15:10:31;;;;;;;;;;;17.10;99.90;;;;;;8396842;28;19920;-77
2022/09/30 15:14:44;;;;;;;;;;;17.00;99.90;;;;;;8396702;28;19978;-79
2022/09/30 15:18:46;;;;;;;;;;;17.00;99.90;;;;;;8390123;28;19924;-78
2022/09/30 15:22:48;;;;;;;;;;;17.00;99.90;;;;;;8410577;28;19931;-79
2022/09/30 15:26:51;;;;;;;;;;;17.00;99.90;;;;;;8390496;28;19920;-78
2022/09/30 15:30:55;;;;;;;;;;;16.90;99.90;;;;;;8388083;28;19943;-78
2022/09/30 15:35:04;;;;;;;;;;;16.80;99.90;;;;;;8405254;28;19927;-79
2022/09/30 15:39:13;;;;;;;;;;;16.70;99.90;;;;;;8392622;28;19920;-78
2022/09/30 15:43:29;;;;;;;;;;;16.60;99.90;;;;;;8398102;28;20355;-78
2022/09/30 15:47:30;;;;;;;;;;;16.50;99.90;;;;;;8400442;28;19924;-78
2022/09/30 15:51:34;;;;;;;;;;;16.50;99.90;;;;;;8398999;28;20018;-78
2022/09/30 15:55:37;;;;;;;;;;;16.40;99.90;;;;;;8394817;28;19920;-78
2022/09/30 15:59:59;;;;;;;;;;;16.40;99.90;;;;;;8405682;28;19926;-78
2022/09/30 16:04:04;;;;;;;;;;;16.40;99.90;;;;;;8391074;28;20391;-78
2022/09/30 16:08:08;;;;;;;;;;;16.40;99.90;;;;;;8391324;28;19924;-77
2022/09/30 16:12:13;;;;;;;;;;;16.40;99.90;;;;;;8394703;28;19920;-78
2022/09/30 16:16:18;;;;;;;;;;;16.40;99.90;;;;;;8379623;28;19925;-78
2022/09/30 16:20:21;;;;;;;;;;;16.40;99.90;;;;;;8396112;28;19928;-79
2022/09/30 16:24:23;;;;;;;;;;;16.30;99.90;;;;;;8395058;28;20086;-78
2022/09/30 16:28:24;;;;;;;;;;;16.20;99.90;;;;;;8379462;28;19925;-79
2022/09/30 16:32:27;;;;;;;;;;;16.10;99.90;;;;;;8403988;27;19920;-78
2022/09/30 16:36:28;;;;;;;;;;;16.00;99.90;;;;;;8401735;28;19924;-79
2022/09/30 16:40:31;;;;;;;;;;;16.00;99.90;;;;;;8402736;28;19956;-78
2022/09/30 16:44:34;;;;;;;;;;;15.90;99.90;;;;;;8389882;28;19928;-79
2022/09/30 16:48:37;;;;;;;;;;;15.90;99.90;;;;;;8406663;27;19931;-78
2022/09/30 16:52:38;;;;;;;;;;;15.80;99.90;;;;;;8383062;28;19920;-78
2022/09/30 16:56:40;;;;;;;;;;;15.80;99.90;;;;;;8399205;28;20272;-78
2022/09/30 17:00:45;;;;;;;;;;;15.70;99.90;;;;;;8391960;28;20297;-78
2022/09/30 17:04:47;;;;;;;;;;;15.70;99.90;;;;;;8378986;28;19997;-78
2022/09/30 17:08:48;;;;;;;;;;;15.60;99.90;;;;;;8410875;28;20371;-77
2022/09/30 17:12:50;;;;;;;;;;;15.60;99.90;;;;;;8396142;28;19981;-78
2022/09/30 17:16:52;;;;;;;;;;;15.50;99.90;;;;;;8373151;28;19924;-78
2022/09/30 17:20:54;;;;;;;;;;;15.50;99.90;;;;;;8380505;28;19923;-77
2022/09/30 17:24:56;;;;;;;;;;;15.40;99.90;;;;;;8384440;28;19936;-78
2022/09/30 17:28:57;;;;;;;;;;;15.30;99.90;;;;;;8391581;28;20046;-78
2022/09/30 17:33:16;;;;;;;;;;;15.30;99.90;;;;;;8398158;28;20019;-78
2022/09/30 17:37:18;;;;;;;;;;;15.20;99.90;;;;;;8396790;28;19919;-78
2022/09/30 17:45:41;;;;;;;;;;;15.20;99.90;;;;;;8390681;28;20366;-79
2022/09/30 17:49:43;;;;;;;;;;;15.20;99.90;;;;;;8391973;28;19931;-78
2022/09/30 17:53:45;;;;;;;;;;;15.20;99.90;;;;;;8377331;28;19939;-78
2022/09/30 17:57:47;;;;;;;;;;;15.10;99.90;;;;;;8405728;27;19920;-79
2022/09/30 18:01:49;;;;;;;;;;;15.10;99.90;;;;;;8404174;28;20318;-78
2022/09/30 18:05:57;;;;;;;;;;;15.10;99.90;;;;;;8392533;28;19924;-78
2022/09/30 18:09:59;;;;;;;;;;;15.00;99.90;;;;;;8402912;28;19926;-78
2022/09/30 18:14:00;;;;;;;;;;;15.00;99.90;;;;;;8396770;27;19924;-78
2022/09/30 18:18:02;;;;;;;;;;;14.90;99.90;;;;;;8394357;27;20367;-78
2022/09/30 18:22:04;;;;;;;;;;;14.90;99.90;;;;;;8387274;28;20667;-78
2022/09/30 18:26:05;;;;;;;;;;;14.80;99.90;;;;;;8396036;28;20321;-78
2022/09/30 18:30:07;;;;;;;;;;;14.80;99.90;;;;;;8391120;28;19928;-78
2022/09/30 18:34:11;;;;;;;;;;;14.80;99.90;;;;;;8395549;28;23899;-78
2022/09/30 18:38:13;;;;;;;;;;;14.70;99.90;;;;;;8394780;28;19920;-78
2022/09/30 18:42:17;;;;;;;;;;;14.70;99.90;;;;;;8394151;28;19981;-78
2022/09/30 18:46:19;;;;;;;;;;;14.70;99.90;;;;;;8392057;28;19920;-77
2022/09/30 18:50:22;;;;;;;;;;;14.70;99.90;;;;;;8394627;28;19920;-78
2022/09/30 18:54:23;;;;;;;;;;;14.60;99.90;;;;;;8392672;28;20463;-78
2022/09/30 18:58:26;;;;;;;;;;;14.60;99.90;;;;;;8379268;28;20283;-79
2022/09/30 19:02:28;;;;;;;;;;;14.70;99.90;;;;;;8393068;28;20363;-77
2022/09/30 19:06:30;;;;;;;;;;;14.60;99.90;;;;;;8403109;28;19993;-78
2022/09/30 19:10:32;;;;;;;;;;;14.60;99.90;;;;;;8382084;28;20025;-78
2022/09/30 19:14:34;;;;;;;;;;;14.60;99.90;;;;;;8396647;28;20486;-78
2022/09/30 19:18:37;;;;;;;;;;;14.60;99.90;;;;;;8397003;28;20346;-78
2022/09/30 19:22:39;;;;;;;;;;;14.60;99.90;;;;;;8393418;28;19924;-78
2022/09/30 19:26:40;;;;;;;;;;;14.60;99.90;;;;;;8398522;28;19919;-79
2022/09/30 19:30:42;;;;;;;;;;;14.60;99.90;;;;;;8395867;28;20316;-78
2022/09/30 19:34:45;;;;;;;;;;;14.60;99.90;;;;;;8400569;28;19924;-77
2022/09/30 19:38:59;;;;;;;;;;;14.60;99.90;;;;;;8397105;28;19927;-78
2022/09/30 19:43:11;;;;;;;;;;;14.60;99.90;;;;;;8398109;28;19932;-78
2022/09/30 19:47:12;;;;;;;;;;;14.60;99.90;;;;;;8393366;28;19924;-78
2022/09/30 19:51:17;;;;;;;;;;;14.60;99.90;;;;;;8383051;28;20023;-78
2022/09/30 19:55:19;;;;;;;;;;;14.50;99.90;;;;;;8392357;28;19928;-78
2022/09/30 19:59:20;;;;;;;;;;;14.50;99.90;;;;;;8404609;27;20287;-78
2022/09/30 20:03:24;;;;;;;;;;;14.50;99.90;;;;;;8395988;28;19921;-79
2022/09/30 20:07:26;;;;;;;;;;;14.50;99.90;;;;;;8401791;28;19919;-78
2022/09/30 20:11:32;;;;;;;;;;;14.50;99.90;;;;;;8395800;28;19928;-78
2022/09/30 20:15:50;;;;;;;;;;;14.50;99.90;;;;;;8395352;28;19967;-78
2022/09/30 20:24:14;;;;;;;;;;;14.50;99.90;;;;;;8394957;28;19927;-78
2022/09/30 20:28:17;;;;;;;;;;;14.50;99.90;;;;;;8392640;28;20291;-78
2022/09/30 20:32:19;;;;;;;;;;;14.40;99.90;;;;;;8386167;28;20403;-78
2022/09/30 20:36:20;;;;;;;;;;;14.40;99.90;;;;;;8381361;28;19921;-79
2022/09/30 20:40:22;;;;;;;;;;;14.40;99.90;;;;;;8362992;28;19927;-79
2022/09/30 20:44:24;;;;;;;;;;;14.40;99.90;;;;;;8343719;28;19931;-78
2022/09/30 20:48:26;;;;;;;;;;;14.40;99.90;;;;;;8362852;28;19975;-78
2022/09/30 20:52:33;;;;;;;;;;;14.40;99.90;;;;;;8366645;28;20279;-78
2022/09/30 20:56:34;;;;;;;;;;;14.40;99.90;;;;;;8347539;28;19935;-78
2022/09/30 21:01:01;;;;;;;;;;;14.40;99.90;;;;;;8369214;28;20389;-79
2022/09/30 21:05:03;;;;;;;;;;;14.30;99.90;;;;;;8384390;28;20354;-78
2022/09/30 21:09:04;;;;;;;;;;;14.30;99.90;;;;;;8363740;28;20330;-78
2022/09/30 21:13:07;;;;;;;;;;;14.30;99.90;;;;;;8387348;28;19930;-78
2022/09/30 21:17:08;;;;;;;;;;;14.30;99.90;;;;;;8392449;28;20019;-79
2022/09/30 21:21:11;;;;;;;;;;;14.30;99.90;;;;;;8388236;28;19979;-79
2022/09/30 21:25:13;;;;;;;;;;;14.30;99.90;;;;;;8383021;28;19930;-79
2022/09/30 21:29:14;;;;;;;;;;;14.30;99.90;;;;;;8380713;28;19958;-79
2022/09/30 21:33:16;;;;;;;;;;;14.20;99.90;;;;;;8392912;28;19920;-78
2022/09/30 21:37:18;;;;;;;;;;;14.20;99.90;;;;;;8411634;28;20261;-79
2022/09/30 21:41:20;;;;;;;;;;;14.10;99.90;;;;;;8413490;28;20006;-79
2022/09/30 21:45:22;;;;;;;;;;;14.00;99.90;;;;;;8409248;28;19930;-78
2022/09/30 21:49:23;;;;;;;;;;;13.90;99.90;;;;;;8434049;28;20043;-78
2022/09/30 21:53:28;;;;;;;;;;;13.80;99.90;;;;;;8416153;28;20375;-79
2022/09/30 21:57:29;;;;;;;;;;;13.80;99.90;;;;;;8412925;28;19935;-78
2022/09/30 22:01:31;;;;;;;;;;;13.70;99.90;;;;;;8425890;28;19939;-78
2022/09/30 22:05:35;;;;;;;;;;;13.60;99.90;;;;;;8435682;28;19932;-78
2022/09/30 22:09:36;;;;;;;;;;;13.60;99.90;;;;;;8424654;28;19926;-78
2022/09/30 22:13:43;;;;;;;;;;;13.60;99.90;;;;;;8425816;28;19954;-78
2022/09/30 22:17:45;;;;;;;;;;;13.50;99.90;;;;;;8390743;28;20268;-78
2022/09/30 22:21:46;;;;;;;;;;;13.40;99.90;;;;;;8416925;28;20364;-78
2022/09/30 22:25:48;;;;;;;;;;;13.40;99.90;;;;;;8444685;28;19926;-79
2022/09/30 22:29:50;;;;;;;;;;;13.30;99.90;;;;;;8433656;28;20379;-78
2022/09/30 22:38:16;;;;;;;;;;;13.20;99.90;;;;;;8403124;28;19924;-79
2022/09/30 22:42:17;;;;;;;;;;;13.10;99.90;;;;;;8395359;28;19921;-77
2022/09/30 22:46:19;;;;;;;;;;;13.00;99.90;;;;;;8384265;28;19924;-79
2022/09/30 22:55:24;;;;;;;;;;;13.00;99.90;;;;;;8387043;28;19934;-78
2022/09/30 23:04:31;;;;;;;;;;;12.70;99.90;;;;;;8378434;28;20009;-78
2022/09/30 23:08:40;;;;;;;;;;;12.70;99.90;;;;;;8380989;28;19935;-78
2022/09/30 23:12:41;;;;;;;;;;;12.60;99.90;;;;;;8403324;28;19920;-79
2022/09/30 23:16:43;;;;;;;;;;;12.50;99.90;;;;;;8372449;28;20294;-78
2022/09/30 23:20:54;;;;;;;;;;;12.50;99.90;;;;;;8380218;28;19928;-78
2022/09/30 23:24:55;;;;;;;;;;;12.50;99.90;;;;;;8371699;28;19920;-79
2022/09/30 23:28:58;;;;;;;;;;;12.50;99.90;;;;;;8389775;28;20094;-77
2022/09/30 23:32:59;;;;;;;;;;;12.40;99.90;;;;;;8402076;28;20030;-78
2022/09/30 23:37:01;;;;;;;;;;;12.40;99.90;;;;;;8405336;28;19920;-78
2022/09/30 23:41:04;;;;;;;;;;;12.30;99.90;;;;;;8411211;28;19923;-77
2022/09/30 23:45:05;;;;;;;;;;;12.30;99.90;;;;;;8430886;28;19929;-78
2022/09/30 23:49:07;;;;;;;;;;;12.20;99.90;;;;;;8467010;27;19926;-78
2022/09/30 23:53:09;;;;;;;;;;;12.20;99.90;;;;;;8446118;28;19920;-78
2022/09/30 23:57:10;;;;;;;;;;;12.20;99.90;;;;;;8464204;27;19924;-78
